sensor_id;sensor_type;location;lat;lon;timestamp;P1;durP1;ratioP1;P2;durP2;ratioP2
19566;SDS011;9930;49.240;8.548;2022-10-17T00:00:57;2.88;;;2.25;;
19566;SDS011;9930;49.240;8.548;2022-10-17T00:03:23;2.58;;;2.30;;
19566;SDS011;9930;49.240;8.548;2022-10-17T00:05:51;4.07;;;2.20;;
19566;SDS011;9930;49.240;8.548;2022-10-17T00:08:16;2.50;;;2.30;;
19566;SDS011;9930;49.240;8.548;2022-10-17T00:10:53;2.83;;;2.53;;
19566;SDS011;9930;49.240;8.548;2022-10-17T00:13:24;3.05;;;2.20;;
19566;SDS011;9930;49.240;8.548;2022-10-17T00:15:53;3.60;;;2.50;;
19566;SDS011;9930;49.240;8.548;2022-10-17T00:18:19;2.80;;;2.28;;
19566;SDS011;9930;49.240;8.548;2022-10-17T00:20:45;2.58;;;2.20;;
19566;SDS011;9930;49.240;8.548;2022-10-17T00:23:10;2.50;;;2.25;;
19566;SDS011;9930;49.240;8.548;2022-10-17T00:25:37;2.03;;;1.92;;
19566;SDS011;9930;49.240;8.548;2022-10-17T00:28:05;2.13;;;1.92;;
19566;SDS011;9930;49.240;8.548;2022-10-17T00:30:40;3.45;;;2.65;;
19566;SDS011;9930;49.240;8.548;2022-10-17T00:33:09;2.58;;;2.28;;
19566;SDS011;9930;49.240;8.548;2022-10-17T00:35:37;5.03;;;2.40;;
19566;SDS011;9930;49.240;8.548;2022-10-17T00:38:03;2.47;;;2.28;;
19566;SDS011;9930;49.240;8.548;2022-10-17T00:40:31;3.92;;;2.30;;
19566;SDS011;9930;49.240;8.548;2022-10-17T00:42:57;2.40;;;2.20;;
19566;SDS011;9930;49.240;8.548;2022-10-17T00:47:54;2.80;;;2.10;;
19566;SDS011;9930;49.240;8.548;2022-10-17T00:50:29;2.45;;;2.15;;
19566;SDS011;9930;49.240;8.548;2022-10-17T00:52:57;2.28;;;2.08;;
19566;SDS011;9930;49.240;8.548;2022-10-17T00:55:27;5.03;;;2.45;;
19566;SDS011;9930;49.240;8.548;2022-10-17T00:58:07;3.50;;;2.25;;
19566;SDS011;9930;49.240;8.548;2022-10-17T01:00:41;2.25;;;2.05;;
19566;SDS011;9930;49.240;8.548;2022-10-17T01:03:12;2.65;;;1.98;;
19566;SDS011;9930;49.240;8.548;2022-10-17T01:05:41;2.72;;;2.00;;
19566;SDS011;9930;49.240;8.548;2022-10-17T01:08:08;2.55;;;2.10;;
19566;SDS011;9930;49.240;8.548;2022-10-17T01:11:20;2.03;;;1.92;;
19566;SDS011;9930;49.240;8.548;2022-10-17T01:13:48;2.20;;;2.00;;
19566;SDS011;9930;49.240;8.548;2022-10-17T01:16:43;2.13;;;1.92;;
19566;SDS011;9930;49.240;8.548;2022-10-17T01:21:58;2.70;;;2.47;;
19566;SDS011;9930;49.240;8.548;2022-10-17T01:31:21;2.40;;;2.15;;
19566;SDS011;9930;49.240;8.548;2022-10-17T01:34:14;3.25;;;2.15;;
19566;SDS011;9930;49.240;8.548;2022-10-17T01:37:19;3.13;;;2.30;;
19566;SDS011;9930;49.240;8.548;2022-10-17T01:42:50;2.97;;;2.40;;
19566;SDS011;9930;49.240;8.548;2022-10-17T01:45:43;3.38;;;2.50;;
19566;SDS011;9930;49.240;8.548;2022-10-17T01:48:16;2.70;;;2.42;;
19566;SDS011;9930;49.240;8.548;2022-10-17T01:50:50;4.10;;;2.30;;
19566;SDS011;9930;49.240;8.548;2022-10-17T01:53:33;2.70;;;2.40;;
19566;SDS011;9930;49.240;8.548;2022-10-17T01:56:13;2.60;;;2.40;;
19566;SDS011;9930;49.240;8.548;2022-10-17T01:58:46;2.83;;;2.35;;
19566;SDS011;9930;49.240;8.548;2022-10-17T02:01:18;2.45;;;2.25;;
19566;SDS011;9930;49.240;8.548;2022-10-17T02:03:52;2.47;;;2.28;;
19566;SDS011;9930;49.240;8.548;2022-10-17T02:06:22;2.75;;;2.55;;
19566;SDS011;9930;49.240;8.548;2022-10-17T02:08:48;2.42;;;2.22;;
19566;SDS011;9930;49.240;8.548;2022-10-17T02:14:05;2.85;;;2.40;;
19566;SDS011;9930;49.240;8.548;2022-10-17T02:17:18;2.65;;;2.45;;
19566;SDS011;9930;49.240;8.548;2022-10-17T02:20:48;3.40;;;1.88;;
19566;SDS011;9930;49.240;8.548;2022-10-17T02:26:22;2.50;;;2.30;;
19566;SDS011;9930;49.240;8.548;2022-10-17T02:31:42;2.40;;;2.20;;
19566;SDS011;9930;49.240;8.548;2022-10-17T02:34:23;2.45;;;2.22;;
19566;SDS011;9930;49.240;8.548;2022-10-17T02:36:58;8.18;;;2.58;;
19566;SDS011;9930;49.240;8.548;2022-10-17T02:39:31;2.22;;;2.08;;
19566;SDS011;9930;49.240;8.548;2022-10-17T02:42:05;2.92;;;2.28;;
19566;SDS011;9930;49.240;8.548;2022-10-17T02:44:36;2.50;;;2.30;;
19566;SDS011;9930;49.240;8.548;2022-10-17T02:47:14;3.83;;;2.22;;
19566;SDS011;9930;49.240;8.548;2022-10-17T02:49:54;2.30;;;2.08;;
19566;SDS011;9930;49.240;8.548;2022-10-17T02:55:12;3.35;;;2.38;;
19566;SDS011;9930;49.240;8.548;2022-10-17T02:57:53;2.33;;;1.90;;
19566;SDS011;9930;49.240;8.548;2022-10-17T03:00:24;2.40;;;2.03;;
19566;SDS011;9930;49.240;8.548;2022-10-17T03:02:52;3.50;;;2.15;;
19566;SDS011;9930;49.240;8.548;2022-10-17T03:05:22;3.80;;;2.30;;
19566;SDS011;9930;49.240;8.548;2022-10-17T03:07:51;2.92;;;2.25;;
19566;SDS011;9930;49.240;8.548;2022-10-17T03:10:18;3.40;;;2.28;;
19566;SDS011;9930;49.240;8.548;2022-10-17T03:12:45;3.08;;;2.25;;
19566;SDS011;9930;49.240;8.548;2022-10-17T03:15:11;2.45;;;1.95;;
19566;SDS011;9930;49.240;8.548;2022-10-17T03:17:42;2.63;;;2.10;;
19566;SDS011;9930;49.240;8.548;2022-10-17T03:20:09;3.28;;;2.25;;
19566;SDS011;9930;49.240;8.548;2022-10-17T03:22:35;2.58;;;2.30;;
19566;SDS011;9930;49.240;8.548;2022-10-17T03:25:01;2.70;;;2.30;;
19566;SDS011;9930;49.240;8.548;2022-10-17T03:27:27;2.30;;;2.10;;
19566;SDS011;9930;49.240;8.548;2022-10-17T03:29:55;2.97;;;2.33;;
19566;SDS011;9930;49.240;8.548;2022-10-17T03:32:20;2.97;;;2.17;;
19566;SDS011;9930;49.240;8.548;2022-10-17T03:34:48;2.28;;;2.08;;
19566;SDS011;9930;49.240;8.548;2022-10-17T03:37:19;3.47;;;2.30;;
19566;SDS011;9930;49.240;8.548;2022-10-17T03:39:45;3.38;;;2.58;;
19566;SDS011;9930;49.240;8.548;2022-10-17T03:42:13;2.40;;;2.20;;
19566;SDS011;9930;49.240;8.548;2022-10-17T03:44:43;3.08;;;2.20;;
19566;SDS011;9930;49.240;8.548;2022-10-17T03:47:10;2.97;;;2.08;;
19566;SDS011;9930;49.240;8.548;2022-10-17T03:49:38;3.65;;;2.10;;
19566;SDS011;9930;49.240;8.548;2022-10-17T03:52:11;2.30;;;2.10;;
19566;SDS011;9930;49.240;8.548;2022-10-17T03:54:40;2.92;;;2.35;;
19566;SDS011;9930;49.240;8.548;2022-10-17T03:57:09;3.33;;;2.53;;
19566;SDS011;9930;49.240;8.548;2022-10-17T03:59:35;3.17;;;2.70;;
19566;SDS011;9930;49.240;8.548;2022-10-17T04:02:01;3.53;;;2.50;;
19566;SDS011;9930;49.240;8.548;2022-10-17T04:04:27;4.30;;;2.72;;
19566;SDS011;9930;49.240;8.548;2022-10-17T04:06:53;2.90;;;2.22;;
19566;SDS011;9930;49.240;8.548;2022-10-17T04:09:20;2.72;;;2.42;;
19566;SDS011;9930;49.240;8.548;2022-10-17T04:11:48;2.13;;;1.92;;
19566;SDS011;9930;49.240;8.548;2022-10-17T04:14:14;2.83;;;2.60;;
19566;SDS011;9930;49.240;8.548;2022-10-17T04:16:40;3.40;;;3.10;;
19566;SDS011;9930;49.240;8.548;2022-10-17T04:19:06;4.35;;;3.95;;
19566;SDS011;9930;49.240;8.548;2022-10-17T04:21:36;6.78;;;4.38;;
19566;SDS011;9930;49.240;8.548;2022-10-17T04:24:05;4.43;;;4.03;;
19566;SDS011;9930;49.240;8.548;2022-10-17T04:26:38;5.68;;;3.70;;
19566;SDS011;9930;49.240;8.548;2022-10-17T04:29:05;3.10;;;2.90;;
19566;SDS011;9930;49.240;8.548;2022-10-17T04:31:33;3.15;;;2.60;;
19566;SDS011;9930;49.240;8.548;2022-10-17T04:33:59;2.95;;;2.72;;
19566;SDS011;9930;49.240;8.548;2022-10-17T04:36:25;4.70;;;2.92;;
19566;SDS011;9930;49.240;8.548;2022-10-17T04:38:51;3.63;;;2.80;;
19566;SDS011;9930;49.240;8.548;2022-10-17T04:41:17;4.25;;;3.15;;
19566;SDS011;9930;49.240;8.548;2022-10-17T04:43:47;2.88;;;2.60;;
19566;SDS011;9930;49.240;8.548;2022-10-17T04:46:13;2.83;;;2.63;;
19566;SDS011;9930;49.240;8.548;2022-10-17T04:48:42;4.00;;;3.53;;
19566;SDS011;9930;49.240;8.548;2022-10-17T04:51:17;4.53;;;4.22;;
19566;SDS011;9930;49.240;8.548;2022-10-17T04:53:43;5.57;;;4.85;;
19566;SDS011;9930;49.240;8.548;2022-10-17T04:56:11;5.00;;;4.60;;
19566;SDS011;9930;49.240;8.548;2022-10-17T04:58:45;5.80;;;5.20;;
19566;SDS011;9930;49.240;8.548;2022-10-17T05:01:13;6.50;;;5.30;;
19566;SDS011;9930;49.240;8.548;2022-10-17T05:03:44;5.65;;;5.25;;
19566;SDS011;9930;49.240;8.548;2022-10-17T05:06:13;5.25;;;4.65;;
19566;SDS011;9930;49.240;8.548;2022-10-17T05:08:49;7.05;;;4.68;;
19566;SDS011;9930;49.240;8.548;2022-10-17T05:11:24;4.50;;;4.00;;
19566;SDS011;9930;49.240;8.548;2022-10-17T05:13:53;4.00;;;3.67;;
19566;SDS011;9930;49.240;8.548;2022-10-17T05:16:28;3.55;;;3.25;;
19566;SDS011;9930;49.240;8.548;2022-10-17T05:18:56;3.42;;;3.13;;
19566;SDS011;9930;49.240;8.548;2022-10-17T05:21:26;3.67;;;3.20;;
19566;SDS011;9930;49.240;8.548;2022-10-17T05:23:55;3.65;;;3.28;;
19566;SDS011;9930;49.240;8.548;2022-10-17T05:26:21;3.53;;;3.22;;
19566;SDS011;9930;49.240;8.548;2022-10-17T05:28:48;3.72;;;3.42;;
19566;SDS011;9930;49.240;8.548;2022-10-17T05:31:16;3.45;;;3.15;;
19566;SDS011;9930;49.240;8.548;2022-10-17T05:33:42;4.47;;;3.08;;
19566;SDS011;9930;49.240;8.548;2022-10-17T05:36:12;3.08;;;2.78;;
19566;SDS011;9930;49.240;8.548;2022-10-17T05:38:38;4.70;;;3.00;;
19566;SDS011;9930;49.240;8.548;2022-10-17T05:41:05;3.58;;;2.95;;
19566;SDS011;9930;49.240;8.548;2022-10-17T05:43:31;3.65;;;3.22;;
19566;SDS011;9930;49.240;8.548;2022-10-17T05:46:06;4.00;;;3.35;;
19566;SDS011;9930;49.240;8.548;2022-10-17T05:48:42;3.75;;;3.10;;
19566;SDS011;9930;49.240;8.548;2022-10-17T05:51:10;4.88;;;2.85;;
19566;SDS011;9930;49.240;8.548;2022-10-17T05:53:39;3.40;;;3.03;;
19566;SDS011;9930;49.240;8.548;2022-10-17T05:56:12;4.00;;;2.88;;
19566;SDS011;9930;49.240;8.548;2022-10-17T05:58:40;2.78;;;2.58;;
19566;SDS011;9930;49.240;8.548;2022-10-17T06:01:09;8.52;;;3.30;;
19566;SDS011;9930;49.240;8.548;2022-10-17T06:03:36;3.38;;;3.08;;
19566;SDS011;9930;49.240;8.548;2022-10-17T06:06:05;4.30;;;3.45;;
19566;SDS011;9930;49.240;8.548;2022-10-17T06:08:36;6.15;;;3.40;;
19566;SDS011;9930;49.240;8.548;2022-10-17T06:11:02;4.70;;;4.03;;
19566;SDS011;9930;49.240;8.548;2022-10-17T06:13:31;5.03;;;4.13;;
19566;SDS011;9930;49.240;8.548;2022-10-17T06:15:59;4.53;;;3.95;;
19566;SDS011;9930;49.240;8.548;2022-10-17T06:18:27;4.57;;;4.13;;
19566;SDS011;9930;49.240;8.548;2022-10-17T06:20:53;5.07;;;4.07;;
19566;SDS011;9930;49.240;8.548;2022-10-17T06:23:26;4.32;;;3.22;;
19566;SDS011;9930;49.240;8.548;2022-10-17T06:25:52;4.13;;;3.72;;
19566;SDS011;9930;49.240;8.548;2022-10-17T06:28:24;4.03;;;3.72;;
19566;SDS011;9930;49.240;8.548;2022-10-17T06:30:52;4.80;;;3.63;;
19566;SDS011;9930;49.240;8.548;2022-10-17T06:33:18;3.90;;;3.60;;
19566;SDS011;9930;49.240;8.548;2022-10-17T06:35:55;4.38;;;3.97;;
19566;SDS011;9930;49.240;8.548;2022-10-17T06:38:21;4.03;;;3.67;;
19566;SDS011;9930;49.240;8.548;2022-10-17T06:40:47;3.70;;;3.40;;
19566;SDS011;9930;49.240;8.548;2022-10-17T06:43:15;5.32;;;4.28;;
19566;SDS011;9930;49.240;8.548;2022-10-17T06:45:41;4.30;;;3.60;;
19566;SDS011;9930;49.240;8.548;2022-10-17T06:48:10;4.70;;;3.63;;
19566;SDS011;9930;49.240;8.548;2022-10-17T06:50:36;4.45;;;4.05;;
19566;SDS011;9930;49.240;8.548;2022-10-17T06:53:04;5.47;;;3.85;;
19566;SDS011;9930;49.240;8.548;2022-10-17T06:55:30;4.10;;;3.75;;
19566;SDS011;9930;49.240;8.548;2022-10-17T06:58:00;4.38;;;2.90;;
19566;SDS011;9930;49.240;8.548;2022-10-17T07:00:28;3.67;;;3.38;;
19566;SDS011;9930;49.240;8.548;2022-10-17T07:02:56;5.93;;;3.58;;
19566;SDS011;9930;49.240;8.548;2022-10-17T07:05:22;7.57;;;3.17;;
19566;SDS011;9930;49.240;8.548;2022-10-17T07:07:47;3.42;;;3.13;;
19566;SDS011;9930;49.240;8.548;2022-10-17T07:10:13;3.17;;;2.95;;
19566;SDS011;9930;49.240;8.548;2022-10-17T07:12:39;5.57;;;3.30;;
19566;SDS011;9930;49.240;8.548;2022-10-17T07:15:06;4.20;;;3.38;;
19566;SDS011;9930;49.240;8.548;2022-10-17T07:17:34;3.50;;;2.90;;
19566;SDS011;9930;49.240;8.548;2022-10-17T07:20:01;3.28;;;2.95;;
19566;SDS011;9930;49.240;8.548;2022-10-17T07:22:27;3.35;;;3.03;;
19566;SDS011;9930;49.240;8.548;2022-10-17T07:24:52;3.38;;;3.08;;
19566;SDS011;9930;49.240;8.548;2022-10-17T07:27:18;5.25;;;3.28;;
19566;SDS011;9930;49.240;8.548;2022-10-17T07:29:46;4.43;;;3.42;;
19566;SDS011;9930;49.240;8.548;2022-10-17T07:32:14;3.30;;;3.00;;
19566;SDS011;9930;49.240;8.548;2022-10-17T07:34:40;3.40;;;3.10;;
19566;SDS011;9930;49.240;8.548;2022-10-17T07:37:06;3.70;;;3.22;;
19566;SDS011;9930;49.240;8.548;2022-10-17T07:39:34;5.10;;;3.08;;
19566;SDS011;9930;49.240;8.548;2022-10-17T07:42:06;3.22;;;2.92;;
19566;SDS011;9930;49.240;8.548;2022-10-17T07:44:32;4.75;;;3.40;;
19566;SDS011;9930;49.240;8.548;2022-10-17T07:46:59;3.53;;;3.08;;
19566;SDS011;9930;49.240;8.548;2022-10-17T07:49:25;3.17;;;2.88;;
19566;SDS011;9930;49.240;8.548;2022-10-17T07:51:55;3.08;;;2.88;;
19566;SDS011;9930;49.240;8.548;2022-10-17T07:54:21;3.00;;;2.65;;
19566;SDS011;9930;49.240;8.548;2022-10-17T07:56:47;3.63;;;3.20;;
19566;SDS011;9930;49.240;8.548;2022-10-17T07:59:15;4.97;;;3.30;;
19566;SDS011;9930;49.240;8.548;2022-10-17T08:01:42;3.17;;;2.88;;
19566;SDS011;9930;49.240;8.548;2022-10-17T08:04:12;2.90;;;2.70;;
19566;SDS011;9930;49.240;8.548;2022-10-17T08:06:40;3.65;;;2.38;;
19566;SDS011;9930;49.240;8.548;2022-10-17T08:09:06;6.20;;;3.55;;
19566;SDS011;9930;49.240;8.548;2022-10-17T08:11:32;3.22;;;2.78;;
19566;SDS011;9930;49.240;8.548;2022-10-17T08:13:59;2.97;;;2.53;;
19566;SDS011;9930;49.240;8.548;2022-10-17T08:16:25;3.90;;;2.65;;
19566;SDS011;9930;49.240;8.548;2022-10-17T08:18:51;2.67;;;2.15;;
19566;SDS011;9930;49.240;8.548;2022-10-17T08:21:16;3.05;;;2.72;;
19566;SDS011;9930;49.240;8.548;2022-10-17T08:23:44;3.17;;;2.63;;
19566;SDS011;9930;49.240;8.548;2022-10-17T08:26:17;4.15;;;2.53;;
19566;SDS011;9930;49.240;8.548;2022-10-17T08:28:43;2.80;;;2.42;;
19566;SDS011;9930;49.240;8.548;2022-10-17T08:31:14;2.70;;;2.50;;
19566;SDS011;9930;49.240;8.548;2022-10-17T08:33:43;2.97;;;2.65;;
19566;SDS011;9930;49.240;8.548;2022-10-17T08:36:14;2.78;;;2.58;;
19566;SDS011;9930;49.240;8.548;2022-10-17T08:38:42;3.05;;;2.75;;
19566;SDS011;9930;49.240;8.548;2022-10-17T08:41:23;3.40;;;2.60;;
19566;SDS011;9930;49.240;8.548;2022-10-17T08:47:22;3.75;;;2.38;;
19566;SDS011;9930;49.240;8.548;2022-10-17T08:50:06;5.00;;;2.65;;
19566;SDS011;9930;49.240;8.548;2022-10-17T08:52:51;2.67;;;2.15;;
19566;SDS011;9930;49.240;8.548;2022-10-17T08:55:29;2.70;;;2.40;;
19566;SDS011;9930;49.240;8.548;2022-10-17T08:58:01;3.47;;;2.63;;
19566;SDS011;9930;49.240;8.548;2022-10-17T09:00:27;2.70;;;2.40;;
19566;SDS011;9930;49.240;8.548;2022-10-17T09:03:00;2.35;;;2.20;;
19566;SDS011;9930;49.240;8.548;2022-10-17T09:05:49;3.17;;;2.60;;
19566;SDS011;9930;49.240;8.548;2022-10-17T09:18:01;2.28;;;2.08;;
19566;SDS011;9930;49.240;8.548;2022-10-17T09:20:39;2.55;;;2.35;;
19566;SDS011;9930;49.240;8.548;2022-10-17T09:23:23;3.33;;;2.15;;
19566;SDS011;9930;49.240;8.548;2022-10-17T09:25:57;2.58;;;2.38;;
19566;SDS011;9930;49.240;8.548;2022-10-17T09:30:59;2.42;;;2.22;;
19566;SDS011;9930;49.240;8.548;2022-10-17T09:33:40;3.25;;;2.30;;
19566;SDS011;9930;49.240;8.548;2022-10-17T09:39:01;2.13;;;2.03;;
19566;SDS011;9930;49.240;8.548;2022-10-17T09:41:46;3.40;;;2.50;;
19566;SDS011;9930;49.240;8.548;2022-10-17T09:44:29;3.85;;;2.78;;
19566;SDS011;9930;49.240;8.548;2022-10-17T09:47:22;2.50;;;2.30;;
19566;SDS011;9930;49.240;8.548;2022-10-17T09:53:09;2.28;;;2.08;;
19566;SDS011;9930;49.240;8.548;2022-10-17T09:55:49;1.95;;;1.85;;
19566;SDS011;9930;49.240;8.548;2022-10-17T09:58:22;2.33;;;2.13;;
19566;SDS011;9930;49.240;8.548;2022-10-17T10:01:29;3.03;;;2.65;;
19566;SDS011;9930;49.240;8.548;2022-10-17T10:06:40;3.30;;;2.15;;
19566;SDS011;9930;49.240;8.548;2022-10-17T10:09:27;3.45;;;2.47;;
19566;SDS011;9930;49.240;8.548;2022-10-17T10:11:56;3.80;;;2.20;;
19566;SDS011;9930;49.240;8.548;2022-10-17T10:14:28;5.47;;;2.42;;
19566;SDS011;9930;49.240;8.548;2022-10-17T10:16:58;2.80;;;2.30;;
19566;SDS011;9930;49.240;8.548;2022-10-17T10:19:33;3.10;;;2.13;;
19566;SDS011;9930;49.240;8.548;2022-10-17T10:22:09;3.05;;;2.10;;
19566;SDS011;9930;49.240;8.548;2022-10-17T10:24:43;2.25;;;1.88;;
19566;SDS011;9930;49.240;8.548;2022-10-17T10:27:41;2.78;;;1.98;;
19566;SDS011;9930;49.240;8.548;2022-10-17T10:30:15;2.58;;;2.03;;
19566;SDS011;9930;49.240;8.548;2022-10-17T10:32:45;3.25;;;2.70;;
19566;SDS011;9930;49.240;8.548;2022-10-17T10:35:22;2.50;;;2.30;;
19566;SDS011;9930;49.240;8.548;2022-10-17T10:37:58;2.50;;;2.15;;
19566;SDS011;9930;49.240;8.548;2022-10-17T10:40:35;3.40;;;2.13;;
19566;SDS011;9930;49.240;8.548;2022-10-17T10:46:15;2.67;;;2.05;;
19566;SDS011;9930;49.240;8.548;2022-10-17T10:48:53;2.47;;;1.92;;
19566;SDS011;9930;49.240;8.548;2022-10-17T10:54:19;3.10;;;1.98;;
19566;SDS011;9930;49.240;8.548;2022-10-17T10:56:55;2.13;;;1.92;;
19566;SDS011;9930;49.240;8.548;2022-10-17T10:59:44;4.25;;;2.35;;
19566;SDS011;9930;49.240;8.548;2022-10-17T11:02:34;2.10;;;1.83;;
19566;SDS011;9930;49.240;8.548;2022-10-17T11:05:51;2.40;;;1.83;;
19566;SDS011;9930;49.240;8.548;2022-10-17T11:14:10;2.38;;;1.75;;
19566;SDS011;9930;49.240;8.548;2022-10-17T11:19:28;2.85;;;1.70;;
19566;SDS011;9930;49.240;8.548;2022-10-17T11:24:45;2.78;;;2.20;;
19566;SDS011;9930;49.240;8.548;2022-10-17T11:27:23;2.35;;;1.83;;
19566;SDS011;9930;49.240;8.548;2022-10-17T11:29:55;2.03;;;1.90;;
19566;SDS011;9930;49.240;8.548;2022-10-17T11:32:35;1.90;;;1.70;;
19566;SDS011;9930;49.240;8.548;2022-10-17T11:35:24;2.47;;;1.85;;
19566;SDS011;9930;49.240;8.548;2022-10-17T11:40:46;2.33;;;2.13;;
19566;SDS011;9930;49.240;8.548;2022-10-17T11:46:01;2.08;;;1.88;;
19566;SDS011;9930;49.240;8.548;2022-10-17T11:49:27;2.08;;;1.88;;
19566;SDS011;9930;49.240;8.548;2022-10-17T11:52:09;2.58;;;2.08;;
19566;SDS011;9930;49.240;8.548;2022-10-17T11:54:54;3.17;;;1.83;;
19566;SDS011;9930;49.240;8.548;2022-10-17T12:12:27;1.90;;;1.80;;
19566;SDS011;9930;49.240;8.548;2022-10-17T12:17:54;2.00;;;1.90;;
19566;SDS011;9930;49.240;8.548;2022-10-17T12:20:34;2.13;;;1.92;;
19566;SDS011;9930;49.240;8.548;2022-10-17T12:34:02;2.20;;;1.80;;
19566;SDS011;9930;49.240;8.548;2022-10-17T12:44:34;2.72;;;1.73;;
19566;SDS011;9930;49.240;8.548;2022-10-17T12:46:56;2.22;;;1.90;;
19566;SDS011;9930;49.240;8.548;2022-10-17T12:49:44;2.28;;;2.08;;
19566;SDS011;9930;49.240;8.548;2022-10-17T12:57:37;2.03;;;1.80;;
19566;SDS011;9930;49.240;8.548;2022-10-17T13:00:40;2.85;;;2.00;;
19566;SDS011;9930;49.240;8.548;2022-10-17T13:03:23;2.38;;;2.22;;
19566;SDS011;9930;49.240;8.548;2022-10-17T13:05:55;3.28;;;3.05;;
19566;SDS011;9930;49.240;8.548;2022-10-17T13:08:30;2.92;;;2.40;;
19566;SDS011;9930;49.240;8.548;2022-10-17T13:11:01;2.10;;;1.90;;
19566;SDS011;9930;49.240;8.548;2022-10-17T13:13:36;3.00;;;2.30;;
19566;SDS011;9930;49.240;8.548;2022-10-17T13:16:35;2.63;;;2.38;;
19566;SDS011;9930;49.240;8.548;2022-10-17T13:19:15;1.92;;;1.83;;
19566;SDS011;9930;49.240;8.548;2022-10-17T13:21:52;4.47;;;2.25;;
19566;SDS011;9930;49.240;8.548;2022-10-17T13:24:40;4.30;;;2.00;;
19566;SDS011;9930;49.240;8.548;2022-10-17T13:27:21;3.15;;;1.83;;
19566;SDS011;9930;49.240;8.548;2022-10-17T13:29:58;2.85;;;2.17;;
19566;SDS011;9930;49.240;8.548;2022-10-17T13:32:37;2.22;;;1.92;;
19566;SDS011;9930;49.240;8.548;2022-10-17T13:35:11;1.83;;;1.73;;
19566;SDS011;9930;49.240;8.548;2022-10-17T13:37:41;2.20;;;2.00;;
19566;SDS011;9930;49.240;8.548;2022-10-17T13:40:17;3.17;;;2.08;;
19566;SDS011;9930;49.240;8.548;2022-10-17T13:42:54;2.90;;;1.90;;
19566;SDS011;9930;49.240;8.548;2022-10-17T13:48:02;2.85;;;2.00;;
19566;SDS011;9930;49.240;8.548;2022-10-17T13:50:39;2.20;;;2.00;;
19566;SDS011;9930;49.240;8.548;2022-10-17T13:53:21;2.60;;;2.10;;
19566;SDS011;9930;49.240;8.548;2022-10-17T13:55:59;3.78;;;1.80;;
19566;SDS011;9930;49.240;8.548;2022-10-17T13:58:45;1.90;;;1.80;;
19566;SDS011;9930;49.240;8.548;2022-10-17T14:01:17;2.28;;;2.08;;
19566;SDS011;9930;49.240;8.548;2022-10-17T14:03:47;2.55;;;2.08;;
19566;SDS011;9930;49.240;8.548;2022-10-17T14:14:26;2.78;;;2.15;;
19566;SDS011;9930;49.240;8.548;2022-10-17T14:16:58;4.68;;;2.40;;
19566;SDS011;9930;49.240;8.548;2022-10-17T14:19:27;3.65;;;2.25;;
19566;SDS011;9930;49.240;8.548;2022-10-17T14:22:17;2.92;;;2.20;;
19566;SDS011;9930;49.240;8.548;2022-10-17T14:24:46;3.55;;;1.83;;
19566;SDS011;9930;49.240;8.548;2022-10-17T14:30:29;2.03;;;1.83;;
19566;SDS011;9930;49.240;8.548;2022-10-17T14:33:02;2.25;;;1.98;;
19566;SDS011;9930;49.240;8.548;2022-10-17T14:35:35;2.40;;;2.08;;
19566;SDS011;9930;49.240;8.548;2022-10-17T14:38:02;2.80;;;2.20;;
19566;SDS011;9930;49.240;8.548;2022-10-17T14:40:31;2.85;;;2.20;;
19566;SDS011;9930;49.240;8.548;2022-10-17T14:43:03;2.35;;;1.90;;
19566;SDS011;9930;49.240;8.548;2022-10-17T14:45:31;2.72;;;2.20;;
19566;SDS011;9930;49.240;8.548;2022-10-17T14:53:39;2.13;;;1.85;;
19566;SDS011;9930;49.240;8.548;2022-10-17T14:56:22;3.17;;;1.95;;
19566;SDS011;9930;49.240;8.548;2022-10-17T14:59:03;2.85;;;1.98;;
19566;SDS011;9930;49.240;8.548;2022-10-17T15:01:36;2.35;;;2.00;;
19566;SDS011;9930;49.240;8.548;2022-10-17T15:04:05;2.42;;;2.20;;
19566;SDS011;9930;49.240;8.548;2022-10-17T15:06:35;2.30;;;2.10;;
19566;SDS011;9930;49.240;8.548;2022-10-17T15:09:01;2.70;;;2.10;;
19566;SDS011;9930;49.240;8.548;2022-10-17T15:11:30;2.65;;;2.38;;
19566;SDS011;9930;49.240;8.548;2022-10-17T15:13:55;2.28;;;2.08;;
19566;SDS011;9930;49.240;8.548;2022-10-17T15:16:26;2.17;;;1.98;;
19566;SDS011;9930;49.240;8.548;2022-10-17T15:18:58;2.40;;;2.08;;
19566;SDS011;9930;49.240;8.548;2022-10-17T15:21:25;4.03;;;1.90;;
19566;SDS011;9930;49.240;8.548;2022-10-17T15:23:52;2.33;;;1.98;;
19566;SDS011;9930;49.240;8.548;2022-10-17T15:28:50;4.13;;;2.47;;
19566;SDS011;9930;49.240;8.548;2022-10-17T15:31:20;2.17;;;1.98;;
19566;SDS011;9930;49.240;8.548;2022-10-17T15:33:49;2.30;;;2.10;;
19566;SDS011;9930;49.240;8.548;2022-10-17T15:36:28;2.67;;;1.98;;
19566;SDS011;9930;49.240;8.548;2022-10-17T15:39:00;2.25;;;1.90;;
19566;SDS011;9930;49.240;8.548;2022-10-17T15:41:27;2.40;;;2.20;;
19566;SDS011;9930;49.240;8.548;2022-10-17T15:43:55;2.85;;;2.47;;
19566;SDS011;9930;49.240;8.548;2022-10-17T15:48:56;3.33;;;3.03;;
19566;SDS011;9930;49.240;8.548;2022-10-17T15:51:31;2.70;;;2.50;;
19566;SDS011;9930;49.240;8.548;2022-10-17T15:54:00;3.47;;;2.38;;
19566;SDS011;9930;49.240;8.548;2022-10-17T15:56:30;2.78;;;2.20;;
19566;SDS011;9930;49.240;8.548;2022-10-17T15:59:10;2.55;;;2.35;;
19566;SDS011;9930;49.240;8.548;2022-10-17T16:01:40;3.25;;;2.97;;
19566;SDS011;9930;49.240;8.548;2022-10-17T16:04:08;2.60;;;2.40;;
19566;SDS011;9930;49.240;8.548;2022-10-17T16:06:40;2.60;;;2.40;;
19566;SDS011;9930;49.240;8.548;2022-10-17T16:09:10;2.70;;;2.50;;
19566;SDS011;9930;49.240;8.548;2022-10-17T16:11:40;3.00;;;2.70;;
19566;SDS011;9930;49.240;8.548;2022-10-17T16:14:11;3.35;;;2.38;;
19566;SDS011;9930;49.240;8.548;2022-10-17T16:16:40;3.78;;;2.20;;
19566;SDS011;9930;49.240;8.548;2022-10-17T16:19:06;3.50;;;2.60;;
19566;SDS011;9930;49.240;8.548;2022-10-17T16:21:37;3.22;;;2.42;;
19566;SDS011;9930;49.240;8.548;2022-10-17T16:24:10;2.50;;;2.30;;
19566;SDS011;9930;49.240;8.548;2022-10-17T16:26:39;3.72;;;2.70;;
19566;SDS011;9930;49.240;8.548;2022-10-17T16:29:10;3.38;;;2.60;;
19566;SDS011;9930;49.240;8.548;2022-10-17T16:31:39;6.35;;;5.75;;
19566;SDS011;9930;49.240;8.548;2022-10-17T16:34:12;8.18;;;7.38;;
19566;SDS011;9930;49.240;8.548;2022-10-17T16:36:40;6.93;;;6.22;;
19566;SDS011;9930;49.240;8.548;2022-10-17T16:39:07;7.05;;;5.90;;
19566;SDS011;9930;49.240;8.548;2022-10-17T16:41:34;4.93;;;4.53;;
19566;SDS011;9930;49.240;8.548;2022-10-17T16:44:06;5.25;;;4.65;;
19566;SDS011;9930;49.240;8.548;2022-10-17T16:46:41;5.00;;;4.47;;
19566;SDS011;9930;49.240;8.548;2022-10-17T16:49:13;6.25;;;5.63;;
19566;SDS011;9930;49.240;8.548;2022-10-17T16:51:43;11.00;;;8.30;;
19566;SDS011;9930;49.240;8.548;2022-10-17T16:54:11;7.57;;;5.72;;
19566;SDS011;9930;49.240;8.548;2022-10-17T16:56:41;10.20;;;6.10;;
19566;SDS011;9930;49.240;8.548;2022-10-17T16:59:09;5.22;;;4.72;;
19566;SDS011;9930;49.240;8.548;2022-10-17T17:01:48;4.28;;;3.65;;
19566;SDS011;9930;49.240;8.548;2022-10-17T17:04:14;3.50;;;3.20;;
19566;SDS011;9930;49.240;8.548;2022-10-17T17:06:44;4.03;;;2.85;;
19566;SDS011;9930;49.240;8.548;2022-10-17T17:09:11;4.35;;;3.30;;
19566;SDS011;9930;49.240;8.548;2022-10-17T17:11:37;3.58;;;3.28;;
19566;SDS011;9930;49.240;8.548;2022-10-17T17:14:18;3.70;;;3.40;;
19566;SDS011;9930;49.240;8.548;2022-10-17T17:16:43;5.90;;;3.40;;
19566;SDS011;9930;49.240;8.548;2022-10-17T17:19:11;3.90;;;3.30;;
19566;SDS011;9930;49.240;8.548;2022-10-17T17:21:41;3.65;;;3.30;;
19566;SDS011;9930;49.240;8.548;2022-10-17T17:24:15;3.63;;;3.33;;
19566;SDS011;9930;49.240;8.548;2022-10-17T17:26:43;3.60;;;3.30;;
19566;SDS011;9930;49.240;8.548;2022-10-17T17:29:17;3.95;;;3.35;;
19566;SDS011;9930;49.240;8.548;2022-10-17T17:31:46;3.83;;;3.40;;
19566;SDS011;9930;49.240;8.548;2022-10-17T17:34:12;3.88;;;3.58;;
19566;SDS011;9930;49.240;8.548;2022-10-17T17:36:40;3.78;;;2.90;;
19566;SDS011;9930;49.240;8.548;2022-10-17T17:39:07;3.75;;;3.33;;
19566;SDS011;9930;49.240;8.548;2022-10-17T17:41:37;4.72;;;3.38;;
19566;SDS011;9930;49.240;8.548;2022-10-17T17:44:10;3.55;;;3.03;;
19566;SDS011;9930;49.240;8.548;2022-10-17T17:46:40;4.18;;;3.78;;
19566;SDS011;9930;49.240;8.548;2022-10-17T17:49:08;4.82;;;4.00;;
19566;SDS011;9930;49.240;8.548;2022-10-17T17:51:39;7.15;;;4.45;;